createdAt,value
2022-10-19T00:00:15.458Z,102134.63
2022-10-19T00:02:41.777Z,102120.22
2022-10-19T00:05:08.105Z,102134.50
2022-10-19T00:07:34.713Z,102125.84
2022-10-19T00:10:01.295Z,102128.75
2022-10-19T00:12:27.613Z,102132.97
2022-10-19T00:14:53.988Z,102132.97
2022-10-19T00:17:20.329Z,102144.50
2022-10-19T00:19:46.637Z,102137.25
2022-10-19T00:22:14.064Z,102140.88
2022-10-19T00:24:40.609Z,102137.25
2022-10-19T00:27:06.929Z,102127.22
2022-10-19T00:29:33.269Z,102136.50
2022-10-19T00:31:59.608Z,102138.63
2022-10-19T00:34:25.935Z,102136.50
2022-10-19T00:36:52.283Z,102141.53
2022-10-19T00:39:18.629Z,102137.88
2022-10-19T00:41:45.391Z,102148.66
2022-10-19T00:44:11.623Z,102139.25
2022-10-19T00:46:41.408Z,102127.00
2022-10-19T00:49:10.796Z,102125.59
2022-10-19T00:51:38.799Z,102133.50
2022-10-19T00:54:05.464Z,102127.00
2022-10-19T00:56:31.796Z,102131.97
2022-10-19T00:58:58.110Z,102131.22
2022-10-19T01:01:24.529Z,102129.88
2022-10-19T01:03:50.869Z,102138.50
2022-10-19T01:06:17.194Z,102127.59
2022-10-19T01:08:43.514Z,102123.97
2022-10-19T01:11:28.621Z,102123.97
2022-10-19T01:14:14.448Z,102130.47
2022-10-19T01:16:44.273Z,102120.34
2022-10-19T01:19:18.321Z,102118.22
2022-10-19T01:21:50.924Z,102116.69
2022-10-19T01:24:28.518Z,102117.47
2022-10-19T01:27:13.759Z,102112.31
2022-10-19T01:29:59.051Z,102122.47
2022-10-19T01:32:34.374Z,102108.69
2022-10-19T01:35:06.329Z,102110.94
2022-10-19T01:37:38.427Z,102099.28
2022-10-19T01:40:12.040Z,102113.69
2022-10-19T01:42:42.341Z,102106.44
2022-10-19T01:45:11.842Z,102107.91
2022-10-19T01:47:48.583Z,102119.44
2022-10-19T01:50:16.199Z,102113.69
2022-10-19T01:52:42.526Z,102102.16
2022-10-19T01:55:09.385Z,102090.63
2022-10-19T01:57:37.113Z,102097.78
2022-10-19T02:00:07.365Z,102102.81
2022-10-19T02:02:38.513Z,102097.03
2022-10-19T02:05:04.891Z,102084.78
2022-10-19T02:07:31.241Z,102084.00
2022-10-19T02:09:57.545Z,102081.88
2022-10-19T02:12:24.152Z,102081.88
2022-10-19T02:14:50.879Z,102090.41
2022-10-19T02:17:18.356Z,102095.41
2022-10-19T02:19:44.699Z,102095.53
2022-10-19T02:22:11.397Z,102097.66
2022-10-19T02:24:37.802Z,102101.94
2022-10-19T02:27:05.453Z,102091.91
2022-10-19T02:29:32.362Z,102101.94
2022-10-19T02:31:58.691Z,102096.16
2022-10-19T02:34:25.018Z,102096.16
2022-10-19T02:36:51.370Z,102101.94
2022-10-19T02:39:17.690Z,102100.41
2022-10-19T02:42:01.205Z,102093.16
2022-10-19T02:44:37.705Z,102093.16
2022-10-19T02:47:09.909Z,102076.63
2022-10-19T02:49:36.222Z,102092.50
2022-10-19T02:52:03.690Z,102082.50
2022-10-19T02:54:30.026Z,102098.41
2022-10-19T02:56:56.347Z,102090.53
2022-10-19T02:59:22.721Z,102096.41
2022-10-19T03:01:49.057Z,102095.03
2022-10-19T03:04:15.423Z,102097.91
2022-10-19T03:06:41.752Z,102095.16
2022-10-19T03:09:08.093Z,102101.69
2022-10-19T03:11:34.423Z,102100.94
2022-10-19T03:14:00.739Z,102100.19
2022-10-19T03:16:27.061Z,102108.81
2022-10-19T03:18:54.264Z,102106.69
2022-10-19T03:21:20.631Z,102104.56
2022-10-19T03:23:46.950Z,102110.94
2022-10-19T03:26:13.846Z,102116.69
2022-10-19T03:28:40.262Z,102108.81
2022-10-19T03:31:06.626Z,102112.44
2022-10-19T03:33:32.947Z,102123.97
2022-10-19T03:36:19.786Z,102127.00
2022-10-19T03:38:46.102Z,102125.59
2022-10-19T03:41:12.505Z,102125.72
2022-10-19T03:43:38.846Z,102132.97
2022-10-19T03:46:05.161Z,102125.72
2022-10-19T03:48:31.464Z,102132.97
2022-10-19T03:50:58.403Z,102132.97
2022-10-19T03:53:24.728Z,102138.75
2022-10-19T03:55:51.062Z,102130.09
2022-10-19T03:58:17.382Z,102127.22
2022-10-19T04:00:43.748Z,102143.16
2022-10-19T04:03:10.102Z,102135.84
2022-10-19T04:05:36.410Z,102131.50
2022-10-19T04:08:02.734Z,102144.50
2022-10-19T04:10:30.633Z,102134.38
2022-10-19T04:12:56.946Z,102137.25
2022-10-19T04:15:23.262Z,102142.28
2022-10-19T04:17:49.581Z,102145.16
2022-10-19T04:20:15.974Z,102153.03
2022-10-19T04:22:42.294Z,102152.28
2022-10-19T04:25:09.267Z,102158.81
2022-10-19T04:27:35.967Z,102151.53
2022-10-19T04:30:02.468Z,102150.03
2022-10-19T04:32:28.794Z,102151.53
2022-10-19T04:34:55.106Z,102150.78
2022-10-19T04:37:21.423Z,102153.66
2022-10-19T04:39:47.738Z,102155.81
2022-10-19T04:42:14.059Z,102160.03
2022-10-19T04:44:40.422Z,102166.53
2022-10-19T04:47:06.738Z,102159.28
2022-10-19T04:49:33.053Z,102161.69
2022-10-19T04:51:59.369Z,102166.06
2022-10-19T04:54:25.711Z,102163.56
2022-10-19T04:56:53.807Z,102172.09
2022-10-19T05:00:00.308Z,102158.09
2022-10-19T05:02:26.621Z,102169.53
2022-10-19T05:04:52.935Z,102163.50
2022-10-19T05:07:19.257Z,102170.94
2022-10-19T05:09:45.624Z,102168.94
2022-10-19T05:12:11.955Z,102167.53
2022-10-19T05:14:41.913Z,102175.56
2022-10-19T05:17:09.245Z,102170.56
2022-10-19T05:19:35.550Z,102172.81
2022-10-19T05:22:01.880Z,102180.84
2022-10-19T05:24:28.186Z,102187.50
2022-10-19T05:26:54.511Z,102191.88
2022-10-19T05:29:20.825Z,102192.59
2022-10-19T05:31:47.179Z,102193.38
2022-10-19T05:34:13.488Z,102192.75
2022-10-19T05:36:39.950Z,102195.63
2022-10-19T05:39:07.169Z,102186.97
2022-10-19T05:41:33.561Z,102194.88
2022-10-19T05:44:00.745Z,102202.13
2022-10-19T05:46:27.450Z,102196.38
2022-10-19T05:48:54.373Z,102196.25
2022-10-19T05:51:20.814Z,102202.78
2022-10-19T05:53:47.130Z,102196.25
2022-10-19T05:56:17.104Z,102194.13
2022-10-19T05:58:43.425Z,102205.66
2022-10-19T06:01:09.746Z,102193.38
2022-10-19T06:03:36.071Z,102200.63
2022-10-19T06:06:05.670Z,102199.16
2022-10-19T06:08:32.012Z,102209.91
2022-10-19T06:11:08.212Z,102206.28
2022-10-19T06:13:34.556Z,102203.38
2022-10-19T06:16:00.868Z,102214.91
2022-10-19T06:18:27.210Z,102220.69
2022-10-19T06:20:53.539Z,102212.66
2022-10-19T06:23:19.840Z,102224.94
2022-10-19T06:25:46.214Z,102224.94
2022-10-19T06:28:12.530Z,102219.78
2022-10-19T06:30:40.115Z,102214.66
2022-10-19T06:33:06.455Z,102228.44
2022-10-19T06:35:32.887Z,102233.47
2022-10-19T06:37:59.193Z,102230.56
2022-10-19T06:40:25.573Z,102229.69
2022-10-19T06:42:51.927Z,102220.41
2022-10-19T06:45:18.275Z,102224.69
2022-10-19T06:47:44.674Z,102228.03
2022-10-19T06:50:11.265Z,102224.53
2022-10-19T06:52:38.149Z,102226.03
2022-10-19T06:55:04.593Z,102225.94
2022-10-19T06:57:30.915Z,102235.31
2022-10-19T06:59:57.261Z,102237.47
2022-10-19T07:02:23.575Z,102235.94
2022-10-19T07:04:49.911Z,102238.81
2022-10-19T07:07:16.232Z,102242.44
2022-10-19T07:09:42.548Z,102237.31
2022-10-19T07:12:10.727Z,102232.91
2022-10-19T07:14:39.430Z,102243.09
2022-10-19T07:17:06.143Z,102251.72
2022-10-19T07:19:32.471Z,102255.50
2022-10-19T07:21:58.769Z,102256.97
2022-10-19T07:24:25.140Z,102264.75
2022-10-19T07:26:51.450Z,102259.97
2022-10-19T07:29:17.762Z,102259.69
2022-10-19T07:31:44.087Z,102262.44
2022-10-19T07:34:11.157Z,102262.44
2022-10-19T07:36:37.824Z,102257.50
2022-10-19T07:39:05.380Z,102252.06
2022-10-19T07:41:31.688Z,102256.16
2022-10-19T07:43:58.109Z,102262.22
2022-10-19T07:46:25.661Z,102261.44
2022-10-19T07:48:52.647Z,102251.13
2022-10-19T07:51:19.006Z,102255.44
2022-10-19T07:53:45.371Z,102263.97
2022-10-19T07:56:20.717Z,102259.81
2022-10-19T07:58:47.159Z,102265.59
2022-10-19T08:01:14.213Z,102267.13
2022-10-19T08:04:31.810Z,102270.78
2022-10-19T08:06:26.830Z,102267.53
2022-10-19T08:08:53.320Z,102270.88
2022-10-19T08:11:20.628Z,102262.81
2022-10-19T08:13:47.307Z,102272.47
2022-10-19T08:16:29.956Z,102278.22
2022-10-19T08:18:57.634Z,102280.72
2022-10-19T08:21:24.330Z,102283.75
2022-10-19T08:23:50.655Z,102288.91
2022-10-19T08:26:16.974Z,102290.41
2022-10-19T08:28:43.302Z,102291.03
2022-10-19T08:31:19.443Z,102292.06
2022-10-19T08:33:45.773Z,102294.06
2022-10-19T08:36:12.743Z,102302.06
2022-10-19T08:38:39.090Z,102293.91
2022-10-19T08:41:28.581Z,102291.16
2022-10-19T08:43:56.821Z,102297.69
2022-10-19T08:46:24.876Z,102306.31
2022-10-19T08:48:51.215Z,102315.72
2022-10-19T08:51:17.545Z,102306.31
2022-10-19T08:53:45.986Z,102311.34
2022-10-19T08:56:49.489Z,102311.34
2022-10-19T08:59:32.519Z,102303.44
2022-10-19T09:01:59.653Z,102302.06
2022-10-19T09:04:26.501Z,102301.31
2022-10-19T09:07:11.656Z,102306.31
2022-10-19T09:09:39.838Z,102304.81
2022-10-19T09:12:06.440Z,102302.06
2022-10-19T09:14:38.588Z,102303.44
2022-10-19T09:17:09.152Z,102300.06
2022-10-19T09:19:35.467Z,102304.59
2022-10-19T09:22:02.851Z,102313.84
2022-10-19T09:24:30.332Z,102310.09
2022-10-19T09:26:59.962Z,102311.63
2022-10-19T09:29:38.203Z,102317.41
2022-10-19T09:32:05.379Z,102327.88
2022-10-19T09:34:38.297Z,102319.91
2022-10-19T09:37:04.677Z,102319.56
2022-10-19T09:39:31.084Z,102311.81
2022-10-19T09:42:04.688Z,102322.09
2022-10-19T09:44:31.010Z,102320.72
2022-10-19T09:47:10.205Z,102315.72
2022-10-19T09:49:39.245Z,102321.63
2022-10-19T09:52:05.558Z,102313.59
2022-10-19T09:54:35.403Z,102320.88
2022-10-19T09:57:01.778Z,102322.22
2022-10-19T09:59:33.620Z,102333.13
2022-10-19T10:02:05.950Z,102326.63
2022-10-19T10:04:32.294Z,102338.16
2022-10-19T10:06:58.620Z,102336.63
2022-10-19T10:09:26.671Z,102334.50
2022-10-19T10:14:29.164Z,102333.13
2022-10-19T10:17:18.874Z,102330.88
2022-10-19T10:20:00.254Z,102334.50
2022-10-19T10:22:27.298Z,102330.88
2022-10-19T10:24:54.002Z,102336.63
2022-10-19T10:27:33.783Z,102336.63
2022-10-19T10:30:02.548Z,102339.50
2022-10-19T10:32:28.991Z,102343.91
2022-10-19T10:35:01.987Z,102343.91
2022-10-19T10:37:29.781Z,102337.38
2022-10-19T10:39:59.040Z,102335.28
2022-10-19T10:42:29.303Z,102339.66
2022-10-19T10:44:56.394Z,102350.41
2022-10-19T10:47:22.708Z,102342.53
2022-10-19T10:49:58.652Z,102334.63
2022-10-19T10:52:25.254Z,102337.38
2022-10-19T10:55:01.481Z,102326.91
2022-10-19T10:57:32.486Z,102332.19
2022-10-19T11:00:07.999Z,102338.84
2022-10-19T11:02:36.078Z,102341.81
2022-10-19T11:05:05.115Z,102341.59
2022-10-19T11:07:32.478Z,102338.34
2022-10-19T11:10:00.068Z,102344.38
2022-10-19T11:12:39.722Z,102337.75
2022-10-19T11:15:07.133Z,102340.91
2022-10-19T11:17:34.086Z,102335.75
2022-10-19T11:20:00.585Z,102336.63
2022-10-19T11:22:31.969Z,102328.63
2022-10-19T11:24:58.193Z,102323.47
2022-10-19T11:27:45.202Z,102312.56
2022-10-19T11:30:19.016Z,102311.19
2022-10-19T11:33:04.072Z,102307.81
2022-10-19T11:35:39.216Z,102319.22
2022-10-19T11:38:20.160Z,102319.06
2022-10-19T11:41:22.331Z,102308.28
2022-10-19T11:44:07.093Z,102311.88
2022-10-19T11:46:52.049Z,102313.00
2022-10-19T11:49:28.329Z,102307.16
2022-10-19T11:51:57.551Z,102308.78
2022-10-19T11:54:36.603Z,102310.44
2022-10-19T11:57:13.286Z,102293.56
2022-10-19T11:59:43.295Z,102295.97
2022-10-19T12:02:31.096Z,102296.09
2022-10-19T12:04:57.731Z,102288.47
2022-10-19T12:07:30.209Z,102297.84
2022-10-19T12:10:04.955Z,102308.63
2022-10-19T12:12:38.281Z,102302.59
2022-10-19T12:15:17.163Z,102298.06
2022-10-19T12:17:44.567Z,102302.34
2022-10-19T12:20:18.898Z,102302.34
2022-10-19T12:22:46.220Z,102308.72
2022-10-19T12:25:12.808Z,102303.72
2022-10-19T12:27:39.121Z,102302.94
2022-10-19T12:30:06.971Z,102302.19
2022-10-19T12:32:35.917Z,102294.94
2022-10-19T12:35:17.236Z,102296.09
2022-10-19T12:37:49.837Z,102291.59
2022-10-19T12:40:37.077Z,102290.50
2022-10-19T12:43:05.437Z,102292.28
2022-10-19T12:45:35.704Z,102280.91
2022-10-19T12:48:08.060Z,102278.91
2022-10-19T12:50:49.720Z,102279.03
2022-10-19T12:53:30.565Z,102271.88
2022-10-19T12:56:00.446Z,102274.38
2022-10-19T12:58:26.772Z,102270.59
2022-10-19T13:00:59.424Z,102277.88
2022-10-19T13:03:29.022Z,102270.72
2022-10-19T13:05:59.989Z,102267.09
2022-10-19T13:08:27.382Z,102265.09
2022-10-19T13:11:03.738Z,102278.16
2022-10-19T13:13:49.879Z,102269.63
2022-10-19T13:16:28.408Z,102266.13
2022-10-19T13:19:06.081Z,102257.59
2022-10-19T13:21:51.231Z,102262.63
2022-10-19T13:24:25.715Z,102258.22
2022-10-19T13:27:04.113Z,102250.97
2022-10-19T13:29:39.633Z,102256.84
2022-10-19T13:32:24.710Z,102251.09
2022-10-19T13:34:51.068Z,102245.31
2022-10-19T13:37:17.649Z,102242.31
2022-10-19T13:39:43.956Z,102245.31
2022-10-19T13:42:25.977Z,102245.31
2022-10-19T13:44:52.975Z,102245.94
2022-10-19T13:47:22.821Z,102233.66
2022-10-19T13:50:21.647Z,102236.53
2022-10-19T13:52:57.298Z,102241.06
2022-10-19T13:55:23.534Z,102240.91
2022-10-19T13:58:13.830Z,102240.31
2022-10-19T14:01:02.622Z,102235.16
2022-10-19T14:03:31.577Z,102230.78
2022-10-19T14:06:16.771Z,102233.66
2022-10-19T14:09:01.763Z,102235.78
2022-10-19T14:11:31.176Z,102226.41
2022-10-19T14:14:14.552Z,102237.94
2022-10-19T14:16:47.788Z,102234.91
2022-10-19T14:19:14.259Z,102222.00
2022-10-19T14:21:41.185Z,102222.00
2022-10-19T14:24:21.125Z,102227.03
2022-10-19T14:26:47.438Z,102226.28
2022-10-19T14:29:13.773Z,102230.50
2022-10-19T14:31:40.077Z,102230.50
2022-10-19T14:34:07.455Z,102226.13
2022-10-19T14:36:35.527Z,102234.16
2022-10-19T14:39:01.853Z,102228.28
2022-10-19T14:41:28.157Z,102223.25
2022-10-19T14:43:58.603Z,102220.38
2022-10-19T14:46:31.335Z,102214.63
2022-10-19T14:49:01.262Z,102221.75
2022-10-19T14:51:39.509Z,102219.50
2022-10-19T14:54:05.763Z,102214.47
2022-10-19T14:56:31.993Z,102215.84
2022-10-19T14:59:05.623Z,102216.47
2022-10-19T15:01:31.962Z,102223.00
2022-10-19T15:03:58.355Z,102219.38
2022-10-19T15:06:28.667Z,102212.84
2022-10-19T15:08:55.670Z,102214.22
2022-10-19T15:11:23.649Z,102209.97
2022-10-19T15:13:51.810Z,102218.47
2022-10-19T15:16:28.853Z,102215.75
2022-10-19T15:18:55.347Z,102211.47
2022-10-19T15:21:21.799Z,102225.25
2022-10-19T15:23:48.777Z,102219.50
2022-10-19T15:26:17.362Z,102215.97
2022-10-19T15:28:43.879Z,102221.75
2022-10-19T15:31:19.921Z,102227.50
2022-10-19T15:33:53.214Z,102223.25
2022-10-19T15:36:20.007Z,102221.75
2022-10-19T15:38:47.139Z,102218.72
2022-10-19T15:41:20.804Z,102214.22
2022-10-19T15:43:49.275Z,102218.47
2022-10-19T15:46:25.812Z,102217.22
2022-10-19T15:48:55.282Z,102218.72
2022-10-19T15:51:24.544Z,102215.09
2022-10-19T15:53:51.370Z,102216.47
2022-10-19T15:56:17.678Z,102214.34
2022-10-19T15:58:43.991Z,102221.50
2022-10-19T16:01:11.550Z,102228.75
2022-10-19T16:03:37.870Z,102233.13
2022-10-19T16:06:04.282Z,102226.50
2022-10-19T16:08:30.721Z,102224.22
2022-10-19T16:10:57.045Z,102229.97
2022-10-19T16:13:23.357Z,102229.97
2022-10-19T16:15:56.799Z,102232.88
2022-10-19T16:18:36.550Z,102235.75
2022-10-19T16:21:02.848Z,102241.50
2022-10-19T16:23:30.723Z,102235.75
2022-10-19T16:25:57.047Z,102244.41
2022-10-19T16:28:23.475Z,102242.88
2022-10-19T16:30:53.078Z,102239.25
2022-10-19T16:33:19.407Z,102249.25
2022-10-19T16:35:45.713Z,102248.50
2022-10-19T16:38:12.266Z,102242.00
2022-10-19T16:40:38.575Z,102240.75
2022-10-19T16:43:04.893Z,102247.00
2022-10-19T16:45:31.267Z,102248.06
2022-10-19T16:47:57.595Z,102247.13
2022-10-19T16:50:23.906Z,102243.78
2022-10-19T16:53:12.172Z,102261.69
2022-10-19T16:55:39.646Z,102252.50
2022-10-19T16:58:05.978Z,102254.00
2022-10-19T17:00:32.322Z,102259.75
2022-10-19T17:02:58.637Z,102261.28
2022-10-19T17:05:24.956Z,102253.38
2022-10-19T17:07:51.274Z,102259.91
2022-10-19T17:10:17.601Z,102262.78
2022-10-19T17:12:43.972Z,102258.53
2022-10-19T17:15:37.541Z,102267.53
2022-10-19T17:17:57.989Z,102268.88
2022-10-19T17:20:24.317Z,102279.44
2022-10-19T17:22:51.694Z,102274.91
2022-10-19T17:25:18.024Z,102271.69
2022-10-19T17:27:44.352Z,102283.97
2022-10-19T17:30:10.742Z,102282.69
2022-10-19T17:32:37.305Z,102273.44
2022-10-19T17:35:03.820Z,102273.19
2022-10-19T17:37:30.151Z,102281.47
2022-10-19T17:39:56.490Z,102277.84
2022-10-19T17:42:22.814Z,102279.13
2022-10-19T17:44:49.109Z,102280.25
2022-10-19T17:47:15.433Z,102276.72
2022-10-19T17:49:41.749Z,102275.56
2022-10-19T17:52:08.078Z,102288.03
2022-10-19T17:54:43.474Z,102279.22
2022-10-19T17:57:20.690Z,102283.25
2022-10-19T17:59:53.028Z,102279.38
2022-10-19T18:02:19.663Z,102278.19
2022-10-19T18:04:46.115Z,102278.19
2022-10-19T18:07:12.496Z,102274.56
2022-10-19T18:09:38.798Z,102288.72
2022-10-19T18:12:07.583Z,102277.69
2022-10-19T18:14:34.024Z,102290.00
2022-10-19T18:17:00.337Z,102288.47
2022-10-19T18:19:26.650Z,102285.44
2022-10-19T18:21:53.372Z,102293.22
2022-10-19T18:24:21.228Z,102290.06
2022-10-19T18:26:48.019Z,102291.63
2022-10-19T18:29:18.147Z,102287.22
2022-10-19T18:31:44.626Z,102289.84
2022-10-19T18:34:12.781Z,102295.50
2022-10-19T18:36:39.109Z,102292.47
2022-10-19T18:39:05.426Z,102288.47
2022-10-19T18:41:31.817Z,102293.34
2022-10-19T18:44:03.091Z,102293.72
2022-10-19T18:46:29.419Z,102288.72
2022-10-19T18:48:55.770Z,102294.50
2022-10-19T18:51:22.107Z,102290.34
2022-10-19T18:53:48.426Z,102283.72
2022-10-19T18:56:15.425Z,102284.47
2022-10-19T18:58:41.834Z,102293.25
2022-10-19T19:01:18.049Z,102291.88
2022-10-19T19:03:45.156Z,102293.13
2022-10-19T19:06:15.059Z,102285.84
2022-10-19T19:08:41.484Z,102281.47
2022-10-19T19:11:11.631Z,102281.59
2022-10-19T19:13:38.083Z,102277.19
2022-10-19T19:16:04.570Z,102275.81
2022-10-19T19:18:33.641Z,102267.06
2022-10-19T19:21:03.365Z,102263.53
2022-10-19T19:23:29.839Z,102265.91
2022-10-19T19:25:56.150Z,102274.69
2022-10-19T19:28:22.478Z,102273.03
2022-10-19T19:30:48.822Z,102271.56
2022-10-19T19:33:15.147Z,102275.94
2022-10-19T19:35:41.988Z,102264.41
2022-10-19T19:38:08.380Z,102267.28
2022-10-19T19:40:34.677Z,102271.56
2022-10-19T19:43:01.115Z,102261.41
2022-10-19T19:45:27.435Z,102262.91
2022-10-19T19:47:53.753Z,102260.63
2022-10-19T19:50:20.076Z,102267.19
2022-10-19T19:52:48.352Z,102269.28
2022-10-19T19:55:14.663Z,102271.19
2022-10-19T19:57:40.986Z,102272.38
2022-10-19T20:00:07.584Z,102281.66
2022-10-19T20:02:38.978Z,102274.16
2022-10-19T20:05:05.291Z,102276.44
2022-10-19T20:07:31.613Z,102273.69
2022-10-19T20:09:57.942Z,102273.69
2022-10-19T20:12:24.256Z,102278.66
2022-10-19T20:14:50.557Z,102285.09
2022-10-19T20:17:16.901Z,102280.69
2022-10-19T20:19:43.255Z,102284.94
2022-10-19T20:22:09.598Z,102289.97
2022-10-19T20:24:37.647Z,102293.47
2022-10-19T20:27:04.190Z,102286.19
2022-10-19T20:29:30.502Z,102288.31
2022-10-19T20:31:56.927Z,102288.97
2022-10-19T20:34:24.030Z,102287.44
2022-10-19T20:36:50.488Z,102285.31
2022-10-19T20:39:16.806Z,102291.72
2022-10-19T20:41:43.193Z,102293.06
2022-10-19T20:44:09.541Z,102292.31
2022-10-19T20:46:36.955Z,102305.25
2022-10-19T20:49:03.469Z,102302.97
2022-10-19T20:51:31.865Z,102297.94
2022-10-19T20:53:58.610Z,102304.34
2022-10-19T20:56:25.885Z,102301.44
2022-10-19T20:58:55.853Z,102296.31
2022-10-19T21:01:22.724Z,102297.69
2022-10-19T21:03:49.562Z,102303.44
2022-10-19T21:06:15.890Z,102304.09
2022-10-19T21:08:42.247Z,102301.97
2022-10-19T21:11:15.407Z,102304.09
2022-10-19T21:13:41.964Z,102295.44
2022-10-19T21:16:09.130Z,102299.81
2022-10-19T21:18:35.558Z,102295.44
2022-10-19T21:21:09.330Z,102293.91
2022-10-19T21:23:35.650Z,102292.56
2022-10-19T21:26:01.967Z,102292.44
2022-10-19T21:28:28.289Z,102288.03
2022-10-19T21:30:54.666Z,102277.88
2022-10-19T21:33:20.990Z,102283.66
2022-10-19T21:35:47.333Z,102285.00
2022-10-19T21:38:13.680Z,102280.03
2022-10-19T21:40:40.015Z,102273.47
2022-10-19T21:43:06.334Z,102286.53
2022-10-19T21:45:32.679Z,102276.38
2022-10-19T21:47:59.007Z,102279.13
2022-10-19T21:50:25.337Z,102287.13
2022-10-19T21:52:51.698Z,102287.13
2022-10-19T21:55:18.032Z,102280.63
2022-10-19T21:57:44.375Z,102279.13
2022-10-19T22:00:10.830Z,102284.91
2022-10-19T22:02:39.300Z,102279.13
2022-10-19T22:05:05.735Z,102270.50
2022-10-19T22:07:32.180Z,102264.72
2022-10-19T22:09:58.581Z,102254.56
2022-10-19T22:12:24.897Z,102256.81
2022-10-19T22:14:51.213Z,102250.16
2022-10-19T22:17:17.537Z,102241.50
2022-10-19T22:19:43.839Z,102240.75
2022-10-19T22:22:10.158Z,102240.75
2022-10-19T22:24:36.467Z,102240.59
2022-10-19T22:27:02.782Z,102243.47
2022-10-19T22:29:29.121Z,102240.59
2022-10-19T22:31:55.479Z,102236.22
2022-10-19T22:34:21.827Z,102244.88
2022-10-19T22:36:48.142Z,102241.25
2022-10-19T22:39:14.456Z,102244.88
2022-10-19T22:41:40.782Z,102236.84
2022-10-19T22:44:07.115Z,102247.00
2022-10-19T22:46:33.476Z,102236.72
2022-10-19T22:48:59.885Z,102232.47
2022-10-19T22:51:26.274Z,102225.19
2022-10-19T22:53:52.604Z,102230.94
2022-10-19T22:56:18.946Z,102232.34
2022-10-19T22:58:45.311Z,102227.31
2022-10-19T23:01:12.327Z,102228.72
2022-10-19T23:03:41.608Z,102229.44
2022-10-19T23:06:08.347Z,102223.69
2022-10-19T23:08:34.701Z,102227.97
2022-10-19T23:11:01.067Z,102215.66
2022-10-19T23:13:27.393Z,102226.44
2022-10-19T23:15:53.718Z,102230.72
2022-10-19T23:18:20.060Z,102232.06
2022-10-19T23:20:53.723Z,102229.94
2022-10-19T23:23:20.053Z,102229.19
2022-10-19T23:25:56.122Z,102226.16
2022-10-19T23:28:22.446Z,102234.81
2022-10-19T23:30:50.228Z,102231.94
2022-10-19T23:33:16.689Z,102233.19
2022-10-19T23:35:43.027Z,102234.69
2022-10-19T23:38:09.477Z,102232.56
2022-10-19T23:40:35.911Z,102237.47
2022-10-19T23:43:02.263Z,102236.69
2022-10-19T23:45:29.772Z,102236.06
2022-10-19T23:47:56.249Z,102247.31
2022-10-19T23:50:22.558Z,102242.94
2022-10-19T23:52:48.873Z,102231.44
2022-10-19T23:55:15.187Z,102232.78
2022-10-19T23:57:41.500Z,102239.78
